Time;durP1;ratioP1;P1;durP2;ratioP2;P2;SDS_P1;SDS_P2;PMS_P1;PMS_P2;Temp;Humidity;BMP_temperature;BMP_pressure;BME280_temperature;BME280_humidity;BME280_pressure;Samples;Min_cycle;Max_cycle;Signal;HPM_P1;HPM_P2
2022/06/28 00:01:43;;;;;;;;;;;;;;;;;;5116401;28;20233;-84
2022/06/28 00:04:09;;;;;;;;;;;;;;;;;;5115076;28;20390;-84
2022/06/28 00:06:34;;;;;;;;;;;;;;;;;;5098085;28;20314;-84
2022/06/28 00:09:00;;;;;;;;;;;;;;;;;;5116174;28;19947;-83
2022/06/28 00:11:25;;;;;;;;;;;;;;;;;;5116321;28;19920;-84
2022/06/28 00:13:50;;;;;;;;;;;;;;;;;;5115760;28;19922;-84
2022/06/28 00:16:16;;;;;;;;;;;;;;;;;;5114893;28;19916;-83
2022/06/28 00:18:42;;;;;;;;;;;;;;;;;;5115072;28;19997;-83
2022/06/28 00:21:07;;;;;;;;;;;;;;;;;;5097997;28;19962;-83
2022/06/28 00:23:33;;;;;;;;;;;;;;;;;;5114460;28;19916;-83
2022/06/28 00:25:58;;;;;;;;;;;;;;;;;;5116113;28;19912;-83
2022/06/28 00:28:24;;;;;;;;;;;;;;;;;;5114427;28;19927;-84
2022/06/28 00:30:49;;;;;;;;;;;;;;;;;;5114558;28;20389;-83
2022/06/28 00:33:14;;;;;;;;;;;;;;;;;;5097585;28;20018;-85
2022/06/28 00:35:40;;;;;;;;;;;;;;;;;;5116021;28;20026;-84
2022/06/28 00:38:05;;;;;;;;;;;;;;;;;;5114474;28;19920;-83
2022/06/28 00:40:31;;;;;;;;;;;;;;;;;;5097630;28;20408;-84
2022/06/28 00:42:56;;;;;;;;;;;;;;;;;;5114243;28;19916;-82
2022/06/28 00:45:21;;;;;;;;;;;;;;;;;;5115508;28;20006;-83
2022/06/28 00:47:47;;;;;;;;;;;;;;;;;;5115759;28;19954;-85
2022/06/28 00:50:12;;;;;;;;;;;;;;;;;;5114371;28;20290;-84
2022/06/28 00:52:57;;;;;;;;;;;;;;;;;;5115605;28;19919;-84
2022/06/28 00:55:23;;;;;;;;;;;;;;;;;;5115679;28;19958;-84
2022/06/28 00:57:48;;;;;;;;;;;;;;;;;;5114613;28;19958;-83
2022/06/28 01:00:13;;;;;;;;;;;;;;;;;;5098329;28;19935;-83
2022/06/28 01:02:39;;;;;;;;;;;;;;;;;;5115575;28;19918;-84
2022/06/28 01:05:04;;;;;;;;;;;;;;;;;;5114058;28;20310;-84
2022/06/28 01:07:29;;;;;;;;;;;;;;;;;;5097295;28;20261;-83
2022/06/28 01:09:55;;;;;;;;;;;;;;;;;;5115386;28;20322;-84
2022/06/28 01:12:20;;;;;;;;;;;;;;;;;;5113590;28;20352;-84
2022/06/28 01:14:45;;;;;;;;;;;;;;;;;;5114766;28;19922;-84
2022/06/28 01:17:11;;;;;;;;;;;;;;;;;;5096739;28;20371;-84
2022/06/28 01:19:36;;;;;;;;;;;;;;;;;;5113857;28;20354;-83
2022/06/28 01:22:03;;;;;;;;;;;;;;;;;;5115660;28;20193;-82
2022/06/28 01:24:28;;;;;;;;;;;;;;;;;;5113753;28;19916;-84
2022/06/28 01:26:54;;;;;;;;;;;;;;;;;;5114655;28;20030;-83
2022/06/28 01:29:19;;;;;;;;;;;;;;;;;;5096689;28;19916;-84
2022/06/28 01:31:44;;;;;;;;;;;;;;;;;;5113701;28;20272;-84
2022/06/28 01:34:10;;;;;;;;;;;;;;;;;;5113843;28;19916;-84
2022/06/28 01:36:35;;;;;;;;;;;;;;;;;;5113909;28;19936;-84
2022/06/28 01:39:00;;;;;;;;;;;;;;;;;;5113632;28;19916;-83
2022/06/28 01:41:34;;;;;;;;;;;;;;;;;;5114531;28;19919;-82
2022/06/28 01:44:01;;;;;;;;;;;;;;;;;;5114785;28;19922;-84
2022/06/28 01:46:26;;;;;;;;;;;;;;;;;;5114727;28;19916;-84
2022/06/28 01:48:51;;;;;;;;;;;;;;;;;;5113442;28;19923;-83
2022/06/28 01:51:17;;;;;;;;;;;;;;;;;;5113638;28;19944;-85
2022/06/28 01:53:42;;;;;;;;;;;;;;;;;;5096325;28;20364;-84
2022/06/28 01:56:07;;;;;;;;;;;;;;;;;;5114604;28;20321;-84
2022/06/28 01:58:33;;;;;;;;;;;;;;;;;;5114671;28;20320;-83
2022/06/28 02:00:58;;;;;;;;;;;;;;;;;;5114658;28;19916;-84
2022/06/28 02:03:23;;;;;;;;;;;;;;;;;;5114641;28;20010;-84
2022/06/28 02:05:49;;;;;;;;;;;;;;;;;;5096523;28;19922;-84
2022/06/28 02:08:14;;;;;;;;;;;;;;;;;;5113199;28;19958;-84
2022/06/28 02:10:39;;;;;;;;;;;;;;;;;;5114219;28;19951;-84
2022/06/28 02:13:05;;;;;;;;;;;;;;;;;;5114477;28;20164;-84
2022/06/28 02:15:30;;;;;;;;;;;;;;;;;;5114671;28;19915;-84
2022/06/28 02:17:59;;;;;;;;;;;;;;;;;;5096493;28;19916;-84
2022/06/28 02:20:24;;;;;;;;;;;;;;;;;;5113215;28;20010;-84
2022/06/28 02:22:49;;;;;;;;;;;;;;;;;;5114425;28;20032;-84
2022/06/28 02:25:17;;;;;;;;;;;;;;;;;;5112972;28;19923;-84
2022/06/28 02:27:43;;;;;;;;;;;;;;;;;;5116984;28;20276;-84
2022/06/28 02:30:09;;;;;;;;;;;;;;;;;;5117327;28;19915;-84
2022/06/28 02:32:34;;;;;;;;;;;;;;;;;;5118394;28;19922;-84
2022/06/28 02:40:27;;;;;;;;;;;;;;;;;;5117773;28;19923;-84
2022/06/28 02:42:53;;;;;;;;;;;;;;;;;;5118167;28;19916;-84
2022/06/28 02:45:19;;;;;;;;;;;;;;;;;;5116700;28;19915;-84
2022/06/28 02:47:44;;;;;;;;;;;;;;;;;;5116691;28;19915;-85
2022/06/28 02:50:09;;;;;;;;;;;;;;;;;;5116525;28;19919;-85
2022/06/28 02:52:35;;;;;;;;;;;;;;;;;;5117702;28;19916;-83
2022/06/28 02:55:00;;;;;;;;;;;;;;;;;;5117915;28;20260;-84
2022/06/28 02:57:26;;;;;;;;;;;;;;;;;;5117653;28;20027;-84
2022/06/28 02:59:51;;;;;;;;;;;;;;;;;;5116678;28;19915;-83
2022/06/28 03:02:16;;;;;;;;;;;;;;;;;;5117564;28;19998;-83
2022/06/28 03:04:41;;;;;;;;;;;;;;;;;;5117561;28;19916;-84
2022/06/28 03:07:07;;;;;;;;;;;;;;;;;;5117287;28;19987;-84
2022/06/28 03:09:32;;;;;;;;;;;;;;;;;;5117392;28;19920;-83
2022/06/28 03:11:57;;;;;;;;;;;;;;;;;;5116474;28;20322;-84
2022/06/28 03:14:23;;;;;;;;;;;;;;;;;;5117238;28;19976;-84
2022/06/28 03:16:48;;;;;;;;;;;;;;;;;;5117506;28;19916;-84
2022/06/28 03:19:13;;;;;;;;;;;;;;;;;;5115941;28;19916;-83
2022/06/28 03:21:39;;;;;;;;;;;;;;;;;;5116880;28;19915;-84
2022/06/28 03:24:04;;;;;;;;;;;;;;;;;;5115921;28;19998;-83
2022/06/28 03:26:29;;;;;;;;;;;;;;;;;;5116465;28;20329;-83
2022/06/28 03:28:55;;;;;;;;;;;;;;;;;;5117562;28;19923;-84
2022/06/28 03:31:20;;;;;;;;;;;;;;;;;;5115874;28;19923;-83
2022/06/28 03:33:45;;;;;;;;;;;;;;;;;;5117045;28;19915;-83
2022/06/28 03:36:11;;;;;;;;;;;;;;;;;;5115687;28;19923;-84
2022/06/28 03:38:36;;;;;;;;;;;;;;;;;;5115200;28;20014;-84
2022/06/28 03:41:01;;;;;;;;;;;;;;;;;;5116877;28;19966;-84
2022/06/28 03:43:26;;;;;;;;;;;;;;;;;;5117064;28;19923;-84
2022/06/28 03:45:52;;;;;;;;;;;;;;;;;;5115738;28;20314;-83
2022/06/28 03:48:17;;;;;;;;;;;;;;;;;;5116690;28;19916;-83
2022/06/28 03:50:42;;;;;;;;;;;;;;;;;;5115070;28;19915;-84
2022/06/28 03:53:08;;;;;;;;;;;;;;;;;;5116486;28;19916;-84
2022/06/28 03:55:33;;;;;;;;;;;;;;;;;;5115210;28;19916;-83
2022/06/28 03:57:58;;;;;;;;;;;;;;;;;;5117052;28;20064;-83
2022/06/28 04:00:24;;;;;;;;;;;;;;;;;;5115149;28;19915;-84
2022/06/28 04:02:49;;;;;;;;;;;;;;;;;;5116417;28;19916;-84
2022/06/28 04:05:15;;;;;;;;;;;;;;;;;;5116101;28;20351;-84
2022/06/28 04:07:40;;;;;;;;;;;;;;;;;;5098093;28;20429;-85
2022/06/28 04:10:06;;;;;;;;;;;;;;;;;;5116299;28;19959;-84
2022/06/28 04:12:31;;;;;;;;;;;;;;;;;;5115879;28;20007;-80
2022/06/28 04:14:57;;;;;;;;;;;;;;;;;;5115055;28;19931;-78
2022/06/28 04:17:22;;;;;;;;;;;;;;;;;;5116084;28;19915;-76
2022/06/28 04:19:48;;;;;;;;;;;;;;;;;;5115988;28;19915;-80
2022/06/28 04:22:13;;;;;;;;;;;;;;;;;;5115992;28;19922;-80
2022/06/28 04:24:38;;;;;;;;;;;;;;;;;;5115942;28;19959;-80
2022/06/28 04:27:04;;;;;;;;;;;;;;;;;;5114755;28;20026;-81
2022/06/28 04:29:29;;;;;;;;;;;;;;;;;;5113728;27;19972;-80
2022/06/28 04:31:54;;;;;;;;;;;;;;;;;;5114144;28;19964;-80
2022/06/28 04:34:20;;;;;;;;;;;;;;;;;;5114974;28;19916;-81
2022/06/28 04:36:45;;;;;;;;;;;;;;;;;;5115688;28;19915;-81
2022/06/28 04:39:10;;;;;;;;;;;;;;;;;;5114951;28;19912;-78
2022/06/28 04:41:36;;;;;;;;;;;;;;;;;;5097312;28;19939;-81
2022/06/28 04:44:01;;;;;;;;;;;;;;;;;;5114910;28;19912;-81
2022/06/28 04:46:26;;;;;;;;;;;;;;;;;;5098113;28;19916;-80
2022/06/28 04:48:52;;;;;;;;;;;;;;;;;;5112820;28;19919;-84
2022/06/28 04:51:17;;;;;;;;;;;;;;;;;;5110497;28;20348;-81
2022/06/28 04:53:46;;;;;;;;;;;;;;;;;;5111767;27;19922;-81
2022/06/28 04:56:11;;;;;;;;;;;;;;;;;;5134041;27;20007;-81
2022/06/28 04:58:40;;;;;;;;;;;;;;;;;;5111338;27;20339;-81
2022/06/28 05:01:05;;;;;;;;;;;;;;;;;;5114308;28;19972;-81
2022/06/28 05:03:42;;;;;;;;;;;;;;;;;;5113097;28;20018;-80
2022/06/28 05:06:08;;;;;;;;;;;;;;;;;;5111010;28;19950;-78
2022/06/28 05:08:33;;;;;;;;;;;;;;;;;;5112760;28;20269;-81
2022/06/28 05:10:59;;;;;;;;;;;;;;;;;;5092271;28;19924;-76
2022/06/28 05:13:24;;;;;;;;;;;;;;;;;;5117005;28;19923;-79
2022/06/28 05:15:55;;;;;;;;;;;;;;;;;;5118758;28;19923;-80
2022/06/28 05:18:20;;;;;;;;;;;;;;;;;;5117402;28;19923;-80
2022/06/28 05:20:46;;;;;;;;;;;;;;;;;;5118957;28;19916;-80
2022/06/28 05:23:11;;;;;;;;;;;;;;;;;;5113768;28;20389;-79
2022/06/28 05:25:46;;;;;;;;;;;;;;;;;;5115774;28;19916;-79
2022/06/28 05:28:14;;;;;;;;;;;;;;;;;;5120953;28;19983;-79
2022/06/28 05:30:40;;;;;;;;;;;;;;;;;;5119131;28;19979;-78
2022/06/28 05:33:05;;;;;;;;;;;;;;;;;;5101702;28;19924;-79
2022/06/28 05:35:31;;;;;;;;;;;;;;;;;;5104911;28;20223;-81
2022/06/28 05:37:57;;;;;;;;;;;;;;;;;;5128277;28;19915;-81
2022/06/28 05:40:31;;;;;;;;;;;;;;;;;;5131622;28;19916;-79
2022/06/28 05:42:57;;;;;;;;;;;;;;;;;;5110313;28;19942;-80
2022/06/28 05:45:24;;;;;;;;;;;;;;;;;;5109360;28;19919;-80
2022/06/28 05:48:08;;;;;;;;;;;;;;;;;;5127341;28;19916;-81
2022/06/28 05:50:33;;;;;;;;;;;;;;;;;;5124482;28;19916;-78
2022/06/28 05:52:59;;;;;;;;;;;;;;;;;;5118946;28;20243;-78
2022/06/28 05:55:24;;;;;;;;;;;;;;;;;;5117678;28;19916;-80
2022/06/28 05:57:50;;;;;;;;;;;;;;;;;;5116300;28;20233;-77
2022/06/28 06:00:15;;;;;;;;;;;;;;;;;;5117532;28;19916;-79
2022/06/28 06:02:41;;;;;;;;;;;;;;;;;;5119989;28;20269;-79
2022/06/28 06:05:07;;;;;;;;;;;;;;;;;;5121709;28;19919;-78
2022/06/28 06:07:32;;;;;;;;;;;;;;;;;;5103857;28;20365;-78
2022/06/28 06:09:57;;;;;;;;;;;;;;;;;;5103667;28;19919;-79
2022/06/28 06:12:23;;;;;;;;;;;;;;;;;;5119579;28;19924;-79
2022/06/28 06:14:48;;;;;;;;;;;;;;;;;;5120537;28;20003;-80
2022/06/28 06:17:13;;;;;;;;;;;;;;;;;;5120996;28;20045;-80
2022/06/28 06:19:39;;;;;;;;;;;;;;;;;;5119834;28;19923;-81
2022/06/28 06:22:04;;;;;;;;;;;;;;;;;;5119991;28;19916;-79
2022/06/28 06:24:33;;;;;;;;;;;;;;;;;;5123188;28;19987;-79
2022/06/28 06:26:58;;;;;;;;;;;;;;;;;;5124493;27;19919;-79
2022/06/28 06:29:26;;;;;;;;;;;;;;;;;;5118844;28;19920;-81
2022/06/28 06:31:52;;;;;;;;;;;;;;;;;;5119546;28;19964;-78
2022/06/28 06:34:25;;;;;;;;;;;;;;;;;;5120511;28;19923;-78
2022/06/28 06:36:54;;;;;;;;;;;;;;;;;;5104405;28;20282;-81
2022/06/28 06:39:23;;;;;;;;;;;;;;;;;;5119415;28;19916;-78
2022/06/28 06:41:48;;;;;;;;;;;;;;;;;;5122724;28;19923;-79
2022/06/28 06:44:26;;;;;;;;;;;;;;;;;;5124728;27;19919;-80
2022/06/28 06:46:51;;;;;;;;;;;;;;;;;;5129509;28;19943;-82
2022/06/28 06:49:18;;;;;;;;;;;;;;;;;;5128214;28;19977;-80
2022/06/28 06:52:16;;;;;;;;;;;;;;;;;;5131730;28;19922;-80
2022/06/28 06:54:41;;;;;;;;;;;;;;;;;;5104167;28;20318;-81
2022/06/28 06:57:07;;;;;;;;;;;;;;;;;;5101267;28;19920;-81
2022/06/28 06:59:33;;;;;;;;;;;;;;;;;;5106203;28;19968;-77
2022/06/28 07:01:58;;;;;;;;;;;;;;;;;;5113241;28;20364;-77
2022/06/28 07:04:24;;;;;;;;;;;;;;;;;;5112733;28;19923;-79
2022/06/28 07:06:49;;;;;;;;;;;;;;;;;;5118284;28;19986;-80
2022/06/28 07:09:15;;;;;;;;;;;;;;;;;;5099078;28;19919;-81
2022/06/28 07:11:40;;;;;;;;;;;;;;;;;;5117373;28;19931;-81
2022/06/28 07:14:05;;;;;;;;;;;;;;;;;;5117679;28;20077;-83
2022/06/28 07:16:31;;;;;;;;;;;;;;;;;;5114427;28;19947;-82
2022/06/28 07:18:57;;;;;;;;;;;;;;;;;;5116546;28;20254;-79
2022/06/28 07:21:22;;;;;;;;;;;;;;;;;;5114564;28;20324;-80
2022/06/28 07:23:48;;;;;;;;;;;;;;;;;;5115140;28;20325;-78
2022/06/28 07:26:18;;;;;;;;;;;;;;;;;;5118589;28;19917;-81
2022/06/28 07:28:43;;;;;;;;;;;;;;;;;;5115115;28;20003;-80
2022/06/28 07:31:09;;;;;;;;;;;;;;;;;;5115012;28;20027;-80
2022/06/28 07:33:34;;;;;;;;;;;;;;;;;;5118966;28;19916;-80
2022/06/28 07:36:00;;;;;;;;;;;;;;;;;;5121180;28;20249;-81
2022/06/28 07:38:29;;;;;;;;;;;;;;;;;;5121514;28;19923;-80
2022/06/28 07:40:58;;;;;;;;;;;;;;;;;;5103782;28;20325;-80
2022/06/28 07:43:24;;;;;;;;;;;;;;;;;;5124025;28;19939;-80
2022/06/28 07:45:50;;;;;;;;;;;;;;;;;;5120955;28;19916;-81
2022/06/28 07:48:18;;;;;;;;;;;;;;;;;;5124609;28;19918;-80
2022/06/28 07:53:27;;;;;;;;;;;;;;;;;;5121405;28;19958;-80
2022/06/28 07:55:53;;;;;;;;;;;;;;;;;;5121830;28;19916;-78
2022/06/28 07:58:18;;;;;;;;;;;;;;;;;;5122772;28;19975;-80
2022/06/28 08:00:47;;;;;;;;;;;;;;;;;;5123467;28;19916;-80
2022/06/28 08:03:13;;;;;;;;;;;;;;;;;;5124651;28;19983;-78
2022/06/28 08:05:41;;;;;;;;;;;;;;;;;;5100665;28;19951;-78
2022/06/28 08:08:08;;;;;;;;;;;;;;;;;;5101496;28;20335;-80
2022/06/28 08:10:33;;;;;;;;;;;;;;;;;;5100536;28;20252;-78
2022/06/28 08:13:06;;;;;;;;;;;;;;;;;;5117807;28;19926;-80
2022/06/28 08:15:38;;;;;;;;;;;;;;;;;;5120215;28;20068;-80
2022/06/28 08:18:04;;;;;;;;;;;;;;;;;;5118201;28;19939;-80
2022/06/28 08:20:31;;;;;;;;;;;;;;;;;;5106018;28;20321;-80
2022/06/28 08:22:56;;;;;;;;;;;;;;;;;;5119438;28;19920;-80
2022/06/28 08:25:22;;;;;;;;;;;;;;;;;;5100535;28;20295;-78
2022/06/28 08:27:48;;;;;;;;;;;;;;;;;;5099870;28;19919;-81
2022/06/28 08:30:13;;;;;;;;;;;;;;;;;;5099729;28;19915;-79
2022/06/28 08:32:45;;;;;;;;;;;;;;;;;;5120223;28;20252;-82
2022/06/28 08:35:10;;;;;;;;;;;;;;;;;;5117763;28;19912;-78
2022/06/28 08:37:36;;;;;;;;;;;;;;;;;;5094565;28;20353;-79
2022/06/28 08:40:01;;;;;;;;;;;;;;;;;;5103195;28;19916;-78
2022/06/28 08:42:27;;;;;;;;;;;;;;;;;;5115806;28;19939;-77
2022/06/28 08:44:53;;;;;;;;;;;;;;;;;;5097769;28;20008;-78
2022/06/28 08:47:19;;;;;;;;;;;;;;;;;;5118687;28;19916;-80
2022/06/28 08:49:50;;;;;;;;;;;;;;;;;;5080095;28;19920;-79
2022/06/28 08:52:16;;;;;;;;;;;;;;;;;;5104456;28;20355;-80
2022/06/28 08:54:47;;;;;;;;;;;;;;;;;;5099944;28;19994;-78
2022/06/28 08:57:22;;;;;;;;;;;;;;;;;;5117980;28;19922;-80
2022/06/28 08:59:47;;;;;;;;;;;;;;;;;;5100913;28;19915;-81
2022/06/28 09:02:13;;;;;;;;;;;;;;;;;;5100972;28;20345;-80
2022/06/28 09:04:39;;;;;;;;;;;;;;;;;;5107992;28;19916;-78
2022/06/28 09:07:05;;;;;;;;;;;;;;;;;;5122527;28;19919;-77
2022/06/28 09:09:30;;;;;;;;;;;;;;;;;;5122188;28;19926;-79
2022/06/28 09:12:01;;;;;;;;;;;;;;;;;;5119281;28;19920;-77
2022/06/28 09:14:28;;;;;;;;;;;;;;;;;;5115896;28;19926;-79
2022/06/28 09:16:57;;;;;;;;;;;;;;;;;;5118397;28;19916;-79
2022/06/28 09:19:43;;;;;;;;;;;;;;;;;;5102174;28;19958;-78
2022/06/28 09:22:25;;;;;;;;;;;;;;;;;;5120206;28;19916;-79
2022/06/28 09:24:50;;;;;;;;;;;;;;;;;;5099329;28;19916;-79
2022/06/28 09:27:16;;;;;;;;;;;;;;;;;;5117540;28;20356;-77
2022/06/28 09:29:48;;;;;;;;;;;;;;;;;;5119254;28;19916;-78
2022/06/28 09:32:13;;;;;;;;;;;;;;;;;;5117388;28;19947;-79
2022/06/28 09:35:03;;;;;;;;;;;;;;;;;;5117146;28;19916;-80
2022/06/28 09:37:31;;;;;;;;;;;;;;;;;;5114536;28;19916;-80
2022/06/28 09:39:57;;;;;;;;;;;;;;;;;;5116258;28;19939;-77
2022/06/28 09:42:43;;;;;;;;;;;;;;;;;;5117960;28;20342;-80
2022/06/28 09:45:10;;;;;;;;;;;;;;;;;;5120316;28;20322;-77
2022/06/28 09:47:39;;;;;;;;;;;;;;;;;;5117111;28;19939;-79
2022/06/28 09:50:05;;;;;;;;;;;;;;;;;;5117823;28;20217;-79
2022/06/28 09:52:33;;;;;;;;;;;;;;;;;;5117788;28;19923;-77
2022/06/28 09:54:59;;;;;;;;;;;;;;;;;;5118096;28;19916;-78
2022/06/28 09:57:24;;;;;;;;;;;;;;;;;;5115990;28;19915;-77
2022/06/28 09:59:50;;;;;;;;;;;;;;;;;;5118767;28;19923;-79
2022/06/28 10:02:16;;;;;;;;;;;;;;;;;;5116989;28;19916;-78
2022/06/28 10:04:42;;;;;;;;;;;;;;;;;;5117014;28;20366;-79
2022/06/28 10:07:25;;;;;;;;;;;;;;;;;;5117216;28;19923;-80
2022/06/28 10:09:51;;;;;;;;;;;;;;;;;;5120621;28;19915;-82
2022/06/28 10:15:04;;;;;;;;;;;;;;;;;;5117235;28;19923;-79
2022/06/28 10:17:51;;;;;;;;;;;;;;;;;;5117006;28;19947;-80
2022/06/28 10:20:37;;;;;;;;;;;;;;;;;;5115793;28;20005;-81
2022/06/28 10:23:24;;;;;;;;;;;;;;;;;;5115526;28;19951;-82
2022/06/28 10:26:08;;;;;;;;;;;;;;;;;;5115570;28;19947;-78
2022/06/28 10:28:43;;;;;;;;;;;;;;;;;;5115625;28;20006;-79
2022/06/28 10:31:20;;;;;;;;;;;;;;;;;;5113930;28;19943;-78
2022/06/28 10:33:45;;;;;;;;;;;;;;;;;;5115728;28;19916;-79
2022/06/28 10:36:12;;;;;;;;;;;;;;;;;;5116747;28;19938;-79
2022/06/28 10:38:37;;;;;;;;;;;;;;;;;;5116461;28;19969;-80
2022/06/28 10:41:13;;;;;;;;;;;;;;;;;;5114983;28;20249;-80
2022/06/28 10:43:43;;;;;;;;;;;;;;;;;;5098969;28;19923;-80
2022/06/28 10:46:11;;;;;;;;;;;;;;;;;;5120715;28;20031;-80
2022/06/28 10:48:59;;;;;;;;;;;;;;;;;;5099519;28;19922;-79
2022/06/28 10:51:25;;;;;;;;;;;;;;;;;;5109932;28;19920;-80
2022/06/28 10:54:04;;;;;;;;;;;;;;;;;;5118636;28;19922;-78
2022/06/28 10:56:31;;;;;;;;;;;;;;;;;;5118907;28;19988;-80
2022/06/28 10:59:02;;;;;;;;;;;;;;;;;;5121163;28;19939;-79
2022/06/28 11:02:06;;;;;;;;;;;;;;;;;;5120290;28;19916;-80
2022/06/28 11:04:41;;;;;;;;;;;;;;;;;;5118934;28;19916;-78
2022/06/28 11:07:21;;;;;;;;;;;;;;;;;;5117502;28;20388;-81
2022/06/28 11:09:49;;;;;;;;;;;;;;;;;;5118738;28;20337;-80
2022/06/28 11:12:22;;;;;;;;;;;;;;;;;;5117817;28;19955;-79
2022/06/28 11:14:50;;;;;;;;;;;;;;;;;;5117601;28;19915;-79
2022/06/28 11:17:19;;;;;;;;;;;;;;;;;;5118425;28;19916;-78
2022/06/28 11:19:50;;;;;;;;;;;;;;;;;;5117560;28;19930;-80
2022/06/28 11:22:23;;;;;;;;;;;;;;;;;;5103179;28;20342;-78
2022/06/28 11:24:48;;;;;;;;;;;;;;;;;;5101290;28;19939;-80
2022/06/28 11:27:20;;;;;;;;;;;;;;;;;;5100414;28;20329;-79
2022/06/28 11:29:46;;;;;;;;;;;;;;;;;;5101066;28;19922;-78
2022/06/28 11:32:18;;;;;;;;;;;;;;;;;;5118079;28;20007;-80
2022/06/28 11:34:44;;;;;;;;;;;;;;;;;;5101062;28;19916;-78
2022/06/28 11:37:10;;;;;;;;;;;;;;;;;;5102023;28;20254;-79
2022/06/28 11:39:35;;;;;;;;;;;;;;;;;;5100195;28;20346;-79
2022/06/28 11:42:00;;;;;;;;;;;;;;;;;;5118481;28;19938;-80
2022/06/28 11:44:25;;;;;;;;;;;;;;;;;;5120019;28;19965;-76
2022/06/28 11:46:51;;;;;;;;;;;;;;;;;;5119744;28;19915;-78
2022/06/28 11:49:27;;;;;;;;;;;;;;;;;;5100431;28;19923;-77
2022/06/28 11:51:52;;;;;;;;;;;;;;;;;;5100671;28;19936;-80
2022/06/28 11:54:19;;;;;;;;;;;;;;;;;;5102437;28;19912;-79
2022/06/28 11:56:45;;;;;;;;;;;;;;;;;;5117125;28;19946;-78
2022/06/28 11:59:11;;;;;;;;;;;;;;;;;;5117115;28;19927;-80
2022/06/28 12:01:37;;;;;;;;;;;;;;;;;;5118361;28;20295;-81
2022/06/28 12:04:06;;;;;;;;;;;;;;;;;;5100117;28;19916;-81
2022/06/28 12:06:31;;;;;;;;;;;;;;;;;;5116982;28;20271;-80
2022/06/28 12:08:58;;;;;;;;;;;;;;;;;;5116304;28;19919;-81
2022/06/28 12:11:24;;;;;;;;;;;;;;;;;;5115116;28;19919;-80
2022/06/28 12:13:53;;;;;;;;;;;;;;;;;;5116059;28;19916;-79
2022/06/28 12:16:18;;;;;;;;;;;;;;;;;;5115949;28;19916;-78
2022/06/28 12:18:51;;;;;;;;;;;;;;;;;;5114586;28;19922;-78
2022/06/28 12:21:16;;;;;;;;;;;;;;;;;;5115815;28;19922;-78
2022/06/28 12:23:48;;;;;;;;;;;;;;;;;;5114607;28;19915;-78
2022/06/28 12:26:14;;;;;;;;;;;;;;;;;;5115920;28;19916;-79
2022/06/28 12:28:39;;;;;;;;;;;;;;;;;;5116023;28;19939;-81
2022/06/28 12:31:04;;;;;;;;;;;;;;;;;;5114695;28;20249;-79
2022/06/28 12:33:29;;;;;;;;;;;;;;;;;;5114282;28;20014;-80
2022/06/28 12:35:55;;;;;;;;;;;;;;;;;;5114494;28;19962;-79
2022/06/28 12:38:20;;;;;;;;;;;;;;;;;;5115656;28;20006;-80
2022/06/28 12:40:45;;;;;;;;;;;;;;;;;;5115886;28;19923;-78
2022/06/28 12:43:11;;;;;;;;;;;;;;;;;;5115611;28;19916;-78
2022/06/28 12:45:36;;;;;;;;;;;;;;;;;;5114462;28;19982;-79
2022/06/28 12:48:02;;;;;;;;;;;;;;;;;;5115215;28;20245;-79
2022/06/28 12:50:27;;;;;;;;;;;;;;;;;;5115616;28;19974;-79
2022/06/28 12:52:52;;;;;;;;;;;;;;;;;;5115419;28;19954;-80
2022/06/28 12:55:18;;;;;;;;;;;;;;;;;;5114252;28;19915;-79
2022/06/28 12:57:44;;;;;;;;;;;;;;;;;;5114586;28;19916;-80
2022/06/28 13:00:10;;;;;;;;;;;;;;;;;;5115233;28;20337;-80
2022/06/28 13:02:35;;;;;;;;;;;;;;;;;;5114831;28;19916;-80
2022/06/28 13:05:01;;;;;;;;;;;;;;;;;;5115222;28;19962;-79
2022/06/28 13:07:26;;;;;;;;;;;;;;;;;;5115181;28;20312;-80
2022/06/28 13:09:51;;;;;;;;;;;;;;;;;;5115168;28;19923;-80
2022/06/28 13:12:17;;;;;;;;;;;;;;;;;;5114295;28;19927;-82
2022/06/28 13:14:42;;;;;;;;;;;;;;;;;;5115030;28;19916;-81
2022/06/28 13:17:07;;;;;;;;;;;;;;;;;;5114719;28;19912;-81
2022/06/28 13:19:33;;;;;;;;;;;;;;;;;;5115038;28;19916;-79
2022/06/28 13:21:58;;;;;;;;;;;;;;;;;;5115309;28;19916;-80
2022/06/28 13:24:23;;;;;;;;;;;;;;;;;;5114859;28;19926;-81
2022/06/28 13:26:49;;;;;;;;;;;;;;;;;;5096885;28;19922;-81
2022/06/28 13:29:14;;;;;;;;;;;;;;;;;;5113848;28;20010;-80
2022/06/28 13:31:39;;;;;;;;;;;;;;;;;;5096434;28;19922;-80
2022/06/28 13:34:05;;;;;;;;;;;;;;;;;;5113550;28;20002;-80
2022/06/28 13:36:31;;;;;;;;;;;;;;;;;;5115081;28;19954;-79
2022/06/28 13:38:56;;;;;;;;;;;;;;;;;;5114797;28;19916;-78
2022/06/28 13:41:22;;;;;;;;;;;;;;;;;;5115054;28;20337;-80
2022/06/28 13:43:47;;;;;;;;;;;;;;;;;;5114638;28;19923;-81
2022/06/28 13:46:12;;;;;;;;;;;;;;;;;;5113129;28;19938;-78
2022/06/28 13:48:38;;;;;;;;;;;;;;;;;;5113492;28;20261;-78
2022/06/28 13:51:03;;;;;;;;;;;;;;;;;;5113664;28;19916;-79
2022/06/28 13:53:29;;;;;;;;;;;;;;;;;;5113506;28;19916;-78
2022/06/28 13:55:54;;;;;;;;;;;;;;;;;;5115191;28;19912;-78
2022/06/28 13:58:20;;;;;;;;;;;;;;;;;;5114622;28;19972;-79
2022/06/28 14:00:45;;;;;;;;;;;;;;;;;;5114293;28;19918;-84
2022/06/28 14:03:10;;;;;;;;;;;;;;;;;;5114499;28;20216;-82
2022/06/28 14:05:38;;;;;;;;;;;;;;;;;;5113554;28;19923;-79
2022/06/28 14:08:04;;;;;;;;;;;;;;;;;;5113102;28;19990;-81
2022/06/28 14:10:29;;;;;;;;;;;;;;;;;;5114518;28;20010;-81
2022/06/28 14:12:56;;;;;;;;;;;;;;;;;;5096841;28;20381;-86
2022/06/28 14:15:22;;;;;;;;;;;;;;;;;;5113149;28;19939;-84
2022/06/28 14:17:47;;;;;;;;;;;;;;;;;;5113161;28;19916;-82
2022/06/28 14:20:12;;;;;;;;;;;;;;;;;;5113071;28;19950;-77
2022/06/28 14:22:38;;;;;;;;;;;;;;;;;;5115237;28;19923;-78
2022/06/28 14:25:03;;;;;;;;;;;;;;;;;;5117085;28;19923;-79
2022/06/28 14:27:29;;;;;;;;;;;;;;;;;;5118544;28;19962;-78
2022/06/28 14:29:54;;;;;;;;;;;;;;;;;;5117896;28;19916;-78
2022/06/28 14:32:19;;;;;;;;;;;;;;;;;;5118073;28;19916;-79
2022/06/28 14:34:45;;;;;;;;;;;;;;;;;;5117223;28;19967;-79
2022/06/28 14:37:10;;;;;;;;;;;;;;;;;;5118043;28;19915;-78
2022/06/28 14:39:36;;;;;;;;;;;;;;;;;;5118096;28;19969;-78
2022/06/28 14:42:01;;;;;;;;;;;;;;;;;;5116737;28;20374;-78
2022/06/28 14:44:27;;;;;;;;;;;;;;;;;;5118280;28;19916;-79
2022/06/28 14:46:52;;;;;;;;;;;;;;;;;;5116917;28;20366;-78
2022/06/28 14:49:17;;;;;;;;;;;;;;;;;;5118405;28;20018;-78
2022/06/28 14:51:43;;;;;;;;;;;;;;;;;;5116613;28;20002;-79
2022/06/28 14:54:08;;;;;;;;;;;;;;;;;;5116473;28;19923;-77
2022/06/28 14:56:34;;;;;;;;;;;;;;;;;;5116667;28;20034;-79
2022/06/28 14:58:59;;;;;;;;;;;;;;;;;;5117282;28;19916;-78
2022/06/28 15:01:24;;;;;;;;;;;;;;;;;;5116585;28;19964;-78
2022/06/28 15:03:50;;;;;;;;;;;;;;;;;;5117467;28;20006;-78
2022/06/28 15:06:15;;;;;;;;;;;;;;;;;;5117540;28;19915;-79
2022/06/28 15:08:40;;;;;;;;;;;;;;;;;;5117370;28;19916;-80
2022/06/28 15:11:06;;;;;;;;;;;;;;;;;;5117262;28;20576;-79
2022/06/28 15:13:31;;;;;;;;;;;;;;;;;;5115846;28;19947;-79
2022/06/28 15:15:57;;;;;;;;;;;;;;;;;;5117851;28;20298;-79
2022/06/28 15:18:22;;;;;;;;;;;;;;;;;;5117283;28;20287;-79
2022/06/28 15:20:47;;;;;;;;;;;;;;;;;;5099148;28;20285;-79
2022/06/28 15:31:28;;;;;;;;;;;;;;;;;;5116036;28;19926;-78
2022/06/28 15:33:53;;;;;;;;;;;;;;;;;;5115098;28;20010;-79
2022/06/28 15:36:19;;;;;;;;;;;;;;;;;;5115509;28;20057;-77
2022/06/28 15:38:44;;;;;;;;;;;;;;;;;;5117105;28;19916;-79
2022/06/28 15:41:10;;;;;;;;;;;;;;;;;;5115263;28;19944;-77
2022/06/28 15:43:35;;;;;;;;;;;;;;;;;;5115712;28;19927;-78
2022/06/28 15:46:00;;;;;;;;;;;;;;;;;;5114836;28;20790;-78
2022/06/28 15:48:26;;;;;;;;;;;;;;;;;;5116673;28;20459;-78
2022/06/28 15:50:52;;;;;;;;;;;;;;;;;;5114537;28;19972;-78
2022/06/28 15:53:17;;;;;;;;;;;;;;;;;;5116376;28;19962;-80
2022/06/28 15:55:42;;;;;;;;;;;;;;;;;;5116252;28;19916;-77
2022/06/28 15:58:08;;;;;;;;;;;;;;;;;;5116894;28;19911;-77
2022/06/28 16:00:33;;;;;;;;;;;;;;;;;;5116699;28;19916;-78
2022/06/28 16:02:58;;;;;;;;;;;;;;;;;;5116493;28;19916;-79
2022/06/28 16:05:24;;;;;;;;;;;;;;;;;;5114177;28;19961;-78
2022/06/28 16:07:49;;;;;;;;;;;;;;;;;;5115161;28;20306;-78
2022/06/28 16:10:14;;;;;;;;;;;;;;;;;;5114902;28;20297;-79
2022/06/28 16:12:52;;;;;;;;;;;;;;;;;;5114195;28;19942;-78
2022/06/28 16:15:27;;;;;;;;;;;;;;;;;;5114003;28;19998;-78
2022/06/28 16:17:53;;;;;;;;;;;;;;;;;;5114763;28;20064;-78
2022/06/28 16:20:18;;;;;;;;;;;;;;;;;;5115638;28;20002;-79
2022/06/28 16:22:45;;;;;;;;;;;;;;;;;;5114787;28;20260;-79
2022/06/28 16:25:11;;;;;;;;;;;;;;;;;;5116656;28;19916;-79
2022/06/28 16:27:37;;;;;;;;;;;;;;;;;;5116561;28;19920;-79
2022/06/28 16:30:02;;;;;;;;;;;;;;;;;;5117337;28;19923;-78
2022/06/28 16:32:27;;;;;;;;;;;;;;;;;;5117862;28;20002;-78
2022/06/28 16:34:53;;;;;;;;;;;;;;;;;;5117665;28;19965;-77
2022/06/28 16:37:18;;;;;;;;;;;;;;;;;;5115017;28;19964;-77
2022/06/28 16:39:43;;;;;;;;;;;;;;;;;;5115733;28;19974;-78
2022/06/28 16:42:09;;;;;;;;;;;;;;;;;;5114501;28;20330;-79
2022/06/28 16:44:35;;;;;;;;;;;;;;;;;;5115802;28;19923;-79
2022/06/28 16:47:01;;;;;;;;;;;;;;;;;;5115554;28;19916;-79
2022/06/28 16:49:26;;;;;;;;;;;;;;;;;;5115458;28;19915;-79
2022/06/28 16:51:51;;;;;;;;;;;;;;;;;;5115766;28;19951;-79
2022/06/28 16:54:18;;;;;;;;;;;;;;;;;;5115388;28;19923;-79
2022/06/28 16:56:44;;;;;;;;;;;;;;;;;;5115666;28;19949;-78
2022/06/28 16:59:10;;;;;;;;;;;;;;;;;;5114676;28;19922;-79
2022/06/28 17:01:36;;;;;;;;;;;;;;;;;;5115594;28;19916;-78
2022/06/28 17:04:01;;;;;;;;;;;;;;;;;;5115953;28;19916;-79